Pagrindinis puslapis
METAR-TAF:

METAR-TAF

Oro uostai :

Nalčikas, Rusija

platuma: 43-30-46N, ilguma: 043-38-12E, Aukštis: 445 m

Dabartinis oras

Ataskaita buvo paskelbta 31 minutes, ne 05:00 UTC
Vėjas 2 kt iš Šiaurės/Šiaurės Vakarų
Temperatūra 26°C
Drėgmė 42%
Slėgis 1017 hPa
Matomumas 10 km arba daugiau

METAR: URMN 110500Z 33001MPS 9999 NSC 26/12 Q1017 R24/////// NOSIG RMK QFE726

Laikas: 09:31 (05:31 UTC)

Prognozė

Ataskaita buvo paskelbta 3 valandos ir 31 minutes, ne 02:00 UTC
Prognozė galioja nuo 11 metu 03 UTC su 11 metu 12 UTC
Vėjas 6 kt iš Šiaurės Rytų su gūsio iki 16 kt
Matomumas 10 km arba daugiau
Su prošvaistėmis ne aukštis 2000 ft

TAF: URMN 110200Z 1103/1112 04003G08MPS 9999 BKN020

Orai ataskaitas ir orų prognozės (METAR, TAF).

turimą stotys yra geltonos ir raudonos taškus žemėlapyje.

Perkelti pele per norėdami pamatyti stoties vardą.

Tada spustelėkite, norėdami matyti oro stebėjimo ir prognozės.

Norėdami pakeisti žemėlapį: spustelėkite ant žalios mygtukų su juodo kryžiaus žemyn,; žalią mygtuką su brūkšneliu, jei norite nutolinti; arba žalių rodyklių gretimoms žemėlapius.


METAR-TAF: